createdAt,value
2019-05-21T00:01:15.578Z,11.30
2019-05-21T00:03:45.254Z,11.30
2019-05-21T00:06:15.456Z,11.20
2019-05-21T00:08:45.075Z,11.30
2019-05-21T00:11:14.694Z,11.20
2019-05-21T00:13:45.328Z,11.20
2019-05-21T00:16:15.240Z,11.20
2019-05-21T00:18:45.115Z,11.20
2019-05-21T00:21:15.429Z,11.10
2019-05-21T00:23:45.789Z,11.10
2019-05-21T00:26:15.721Z,11.10
2019-05-21T00:29:21.074Z,11.10
2019-05-21T00:32:26.060Z,11.00
2019-05-21T00:35:45.205Z,11.00
2019-05-21T00:38:52.096Z,11.00
2019-05-21T00:41:58.819Z,11.00
2019-05-21T00:44:29.764Z,10.90
2019-05-21T00:47:00.044Z,10.90
2019-05-21T00:49:29.648Z,10.90
2019-05-21T00:52:08.035Z,10.90
2019-05-21T00:54:31.491Z,10.90
2019-05-21T00:57:01.473Z,10.80
2019-05-21T00:59:31.669Z,10.80
2019-05-21T01:02:01.929Z,10.80
2019-05-21T01:04:32.155Z,10.80
2019-05-21T01:07:01.514Z,10.80
2019-05-21T01:09:30.803Z,10.80
2019-05-21T01:12:02.486Z,10.80
2019-05-21T01:14:32.856Z,10.70
2019-05-21T01:17:03.113Z,10.70
2019-05-21T01:19:33.149Z,10.70
2019-05-21T01:22:03.096Z,10.70
2019-05-21T01:24:33.346Z,10.70
2019-05-21T01:27:03.553Z,10.70
2019-05-21T01:29:33.529Z,10.70
2019-05-21T01:32:03.805Z,10.70
2019-05-21T01:34:34.129Z,10.70
2019-05-21T01:37:04.544Z,10.70
2019-05-21T01:39:34.512Z,10.70
2019-05-21T01:42:04.446Z,10.60
2019-05-21T01:44:35.154Z,10.60
2019-05-21T01:47:05.420Z,10.60
2019-05-21T01:49:35.662Z,10.60
2019-05-21T01:52:05.219Z,10.60
2019-05-21T01:54:34.835Z,10.60
2019-05-21T01:57:04.569Z,10.60
2019-05-21T01:59:34.544Z,10.60
2019-05-21T02:02:04.472Z,10.50
2019-05-21T02:04:34.099Z,10.50
2019-05-21T02:07:03.975Z,10.50
2019-05-21T02:09:36.012Z,10.50
2019-05-21T02:12:06.527Z,10.60
2019-05-21T02:14:36.822Z,10.50
2019-05-21T02:17:06.544Z,10.50
2019-05-21T02:19:36.486Z,10.50
2019-05-21T02:22:06.074Z,10.50
2019-05-21T02:24:35.658Z,10.50
2019-05-21T02:27:05.271Z,10.50
2019-05-21T02:29:35.139Z,10.50
2019-05-21T02:32:04.784Z,10.50
2019-05-21T02:34:34.981Z,10.50
2019-05-21T02:37:06.359Z,10.50
2019-05-21T02:39:37.188Z,10.50
2019-05-21T02:42:06.842Z,10.50
2019-05-21T02:44:38.742Z,10.50
2019-05-21T02:47:09.036Z,10.50
2019-05-21T02:49:39.593Z,10.50
2019-05-21T02:52:10.171Z,10.50
2019-05-21T02:54:41.677Z,10.50
2019-05-21T02:57:11.389Z,10.40
2019-05-21T02:59:42.231Z,10.40
2019-05-21T03:02:18.302Z,10.40
2019-05-21T03:04:48.289Z,10.40
2019-05-21T03:07:21.100Z,10.40
2019-05-21T03:09:50.607Z,10.40
2019-05-21T03:12:20.811Z,10.40
2019-05-21T03:14:50.768Z,10.40
2019-05-21T03:17:20.955Z,10.40
2019-05-21T03:19:51.256Z,10.40
2019-05-21T03:22:20.831Z,10.40
2019-05-21T03:24:50.869Z,10.40
2019-05-21T03:27:20.500Z,10.40
2019-05-21T03:29:50.554Z,10.30
2019-05-21T03:32:21.060Z,10.40
2019-05-21T03:34:51.403Z,10.30
2019-05-21T03:37:21.270Z,10.30
2019-05-21T03:39:51.637Z,10.30
2019-05-21T03:42:21.494Z,10.30
2019-05-21T03:44:59.828Z,10.30
2019-05-21T03:47:23.957Z,10.30
2019-05-21T03:49:54.021Z,10.30
2019-05-21T03:52:23.741Z,10.30
2019-05-21T03:54:54.300Z,10.30
2019-05-21T03:57:24.253Z,10.30
2019-05-21T03:59:54.220Z,10.30
2019-05-21T04:02:24.143Z,10.30
2019-05-21T04:04:54.464Z,10.30
2019-05-21T04:07:24.773Z,10.30
2019-05-21T04:09:54.979Z,10.30
2019-05-21T04:12:24.975Z,10.30
2019-05-21T04:14:58.868Z,10.30
2019-05-21T04:17:59.698Z,10.30
2019-05-21T04:20:29.269Z,10.30
2019-05-21T04:22:59.919Z,10.30
2019-05-21T04:25:29.928Z,10.30
2019-05-21T04:27:59.936Z,10.30
2019-05-21T04:30:30.499Z,10.30
2019-05-21T04:33:00.065Z,10.20
2019-05-21T04:35:30.335Z,10.30
2019-05-21T04:37:59.924Z,10.30
2019-05-21T04:40:29.608Z,10.30
2019-05-21T04:43:02.229Z,10.30
2019-05-21T04:45:31.251Z,10.30
2019-05-21T04:48:01.184Z,10.20
2019-05-21T04:50:31.129Z,10.20
2019-05-21T04:53:01.031Z,10.30
2019-05-21T04:55:31.334Z,10.30
2019-05-21T04:58:00.997Z,10.20
2019-05-21T05:00:31.298Z,10.30
2019-05-21T05:03:01.486Z,10.20
2019-05-21T05:05:31.926Z,10.20
2019-05-21T05:08:02.593Z,10.20
2019-05-21T05:10:32.909Z,10.30
2019-05-21T05:13:03.201Z,10.20
2019-05-21T05:15:32.854Z,10.20
2019-05-21T05:18:02.804Z,10.20
2019-05-21T05:20:32.727Z,10.20
2019-05-21T05:23:02.624Z,10.30
2019-05-21T05:25:33.408Z,10.20
2019-05-21T05:28:02.726Z,10.20
2019-05-21T05:30:32.753Z,10.20
2019-05-21T05:33:02.763Z,10.20
2019-05-21T05:35:33.294Z,10.20
2019-05-21T05:38:03.853Z,10.20
2019-05-21T05:40:34.105Z,10.20
2019-05-21T05:43:04.385Z,10.20
2019-05-21T05:45:34.687Z,10.30
2019-05-21T05:48:04.734Z,10.20
2019-05-21T05:50:37.860Z,10.20
2019-05-21T05:53:07.506Z,10.20
2019-05-21T05:55:37.715Z,10.20
2019-05-21T05:58:07.617Z,10.20
2019-05-21T06:00:38.158Z,10.20
2019-05-21T06:03:08.455Z,10.20
2019-05-21T06:05:38.487Z,10.20
2019-05-21T06:08:08.825Z,10.20
2019-05-21T06:10:40.082Z,10.20
2019-05-21T06:13:10.568Z,10.20
2019-05-21T06:15:41.299Z,10.20
2019-05-21T06:18:11.618Z,10.20
2019-05-21T06:20:41.823Z,10.20
2019-05-21T06:23:11.764Z,10.20
2019-05-21T06:25:41.752Z,10.30
2019-05-21T06:28:12.013Z,10.30
2019-05-21T06:30:41.628Z,10.20
2019-05-21T06:33:11.581Z,10.20
2019-05-21T06:35:42.173Z,10.20
2019-05-21T06:38:17.596Z,10.20
2019-05-21T06:40:44.090Z,10.20
2019-05-21T06:43:13.452Z,10.20
2019-05-21T06:45:43.685Z,10.20
2019-05-21T06:48:14.230Z,10.20
2019-05-21T06:50:44.583Z,10.20
2019-05-21T06:53:14.221Z,10.20
2019-05-21T06:55:44.207Z,10.20
2019-05-21T06:58:14.441Z,10.20
2019-05-21T07:00:44.743Z,10.20
2019-05-21T07:03:14.352Z,10.20
2019-05-21T07:05:57.543Z,10.20
2019-05-21T07:08:15.864Z,10.20
2019-05-21T07:10:45.754Z,10.20
2019-05-21T07:13:15.646Z,10.20
2019-05-21T07:15:45.575Z,10.20
2019-05-21T07:18:15.250Z,10.20
2019-05-21T07:20:45.197Z,10.30
2019-05-21T07:23:14.846Z,10.20
2019-05-21T07:25:45.084Z,10.20
2019-05-21T07:28:15.617Z,10.20
2019-05-21T07:30:45.598Z,10.30
2019-05-21T07:33:16.051Z,10.20
2019-05-21T07:35:46.122Z,10.20
2019-05-21T07:38:16.349Z,10.20
2019-05-21T07:40:45.633Z,10.20
2019-05-21T07:43:15.522Z,10.20
2019-05-21T07:45:45.848Z,10.10
2019-05-21T07:48:15.744Z,10.10
2019-05-21T07:50:45.055Z,10.20
2019-05-21T07:53:15.351Z,10.10
2019-05-21T07:55:45.599Z,10.10
2019-05-21T07:58:15.772Z,10.20
2019-05-21T08:00:45.982Z,10.20
2019-05-21T08:03:15.523Z,10.20
2019-05-21T08:05:45.728Z,10.20
2019-05-21T08:08:40.552Z,10.20
2019-05-21T08:11:11.171Z,10.20
2019-05-21T08:13:40.891Z,10.30
2019-05-21T08:16:11.097Z,10.30
2019-05-21T08:18:40.979Z,10.30
2019-05-21T08:21:11.207Z,10.30
2019-05-21T08:23:40.860Z,10.30
2019-05-21T08:26:10.836Z,10.30
2019-05-21T08:28:40.473Z,10.30
2019-05-21T08:31:10.431Z,10.30
2019-05-21T08:33:40.963Z,10.40
2019-05-21T08:36:10.984Z,10.40
2019-05-21T08:38:41.276Z,10.40
2019-05-21T08:41:11.555Z,10.40
2019-05-21T08:43:42.152Z,10.50
2019-05-21T08:46:11.778Z,10.50
2019-05-21T08:48:41.731Z,10.50
2019-05-21T08:51:12.022Z,10.50
2019-05-21T08:53:41.700Z,10.60
2019-05-21T08:56:11.110Z,10.60
2019-05-21T08:58:40.677Z,10.70
2019-05-21T09:01:10.862Z,10.70
2019-05-21T09:03:41.580Z,10.60
2019-05-21T09:06:11.520Z,10.60
2019-05-21T09:08:41.802Z,10.70
2019-05-21T09:11:12.590Z,10.70
2019-05-21T09:13:42.472Z,10.60
2019-05-21T09:16:13.072Z,10.60
2019-05-21T09:18:42.692Z,10.60
2019-05-21T09:21:12.548Z,10.60
2019-05-21T09:23:42.119Z,10.60
2019-05-21T09:26:12.005Z,10.60
2019-05-21T09:28:42.541Z,10.60
2019-05-21T09:31:12.167Z,10.50
2019-05-21T09:33:42.432Z,10.60
2019-05-21T09:36:12.362Z,10.60
2019-05-21T09:38:42.344Z,10.60
2019-05-21T09:41:12.258Z,10.60
2019-05-21T09:43:42.340Z,10.60
2019-05-21T09:46:12.340Z,10.60
2019-05-21T09:48:42.019Z,10.70
2019-05-21T09:51:19.744Z,10.70
2019-05-21T09:53:44.313Z,10.70
2019-05-21T09:56:31.852Z,10.80
2019-05-21T09:59:05.585Z,10.80
2019-05-21T10:01:41.672Z,10.80
2019-05-21T10:04:12.102Z,10.80
2019-05-21T10:06:42.534Z,10.90
2019-05-21T10:09:17.368Z,11.00
2019-05-21T10:11:47.687Z,10.90
2019-05-21T10:14:17.711Z,11.00
2019-05-21T10:16:49.171Z,11.00
2019-05-21T10:19:19.119Z,11.00
2019-05-21T10:21:49.422Z,11.00
2019-05-21T10:24:19.648Z,11.10
2019-05-21T10:26:49.642Z,11.10
2019-05-21T10:29:19.268Z,11.10
2019-05-21T10:31:49.531Z,11.00
2019-05-21T10:34:19.419Z,11.00
2019-05-21T10:36:50.004Z,11.00
2019-05-21T10:39:20.201Z,11.00
2019-05-21T10:41:50.680Z,11.00
2019-05-21T10:44:21.368Z,11.00
2019-05-21T10:46:50.629Z,11.00
2019-05-21T10:49:20.646Z,11.10
2019-05-21T10:51:50.840Z,11.10
2019-05-21T10:54:21.369Z,11.10
2019-05-21T10:56:51.278Z,11.10
2019-05-21T10:59:21.677Z,11.10
2019-05-21T11:02:04.013Z,11.10
2019-05-21T11:04:52.982Z,11.00
2019-05-21T11:07:23.914Z,11.00
2019-05-21T11:09:53.929Z,11.10
2019-05-21T11:12:24.303Z,11.10
2019-05-21T11:14:54.232Z,11.10
2019-05-21T11:17:24.212Z,11.10
2019-05-21T11:19:54.098Z,11.20
2019-05-21T11:22:24.892Z,11.10
2019-05-21T11:24:55.111Z,11.20
2019-05-21T11:27:25.290Z,11.20
2019-05-21T11:29:55.659Z,11.20
2019-05-21T11:32:25.713Z,11.20
2019-05-21T11:34:55.303Z,11.30
2019-05-21T11:37:25.308Z,11.30
2019-05-21T11:39:55.626Z,11.20
2019-05-21T11:42:25.844Z,11.30
2019-05-21T11:44:55.511Z,11.30
2019-05-21T11:47:25.075Z,11.30
2019-05-21T11:49:55.354Z,11.30
2019-05-21T11:52:25.363Z,11.30
2019-05-21T11:54:57.132Z,11.30
2019-05-21T11:57:26.734Z,11.40
2019-05-21T11:59:56.407Z,11.30
2019-05-21T12:02:26.688Z,11.30
2019-05-21T12:04:56.649Z,11.30
2019-05-21T12:07:27.224Z,11.30
2019-05-21T12:09:56.971Z,11.30
2019-05-21T12:12:26.940Z,11.40
2019-05-21T12:14:57.177Z,11.40
2019-05-21T12:17:27.491Z,11.40
2019-05-21T12:19:57.768Z,11.40
2019-05-21T12:22:27.990Z,11.40
2019-05-21T12:24:57.905Z,11.40
2019-05-21T12:27:27.878Z,11.50
2019-05-21T12:29:57.514Z,11.50
2019-05-21T12:32:27.134Z,11.60
2019-05-21T12:34:56.770Z,11.50
2019-05-21T12:37:27.051Z,11.60
2019-05-21T12:39:57.756Z,11.60
2019-05-21T12:42:27.725Z,11.60
2019-05-21T12:44:58.037Z,11.50
2019-05-21T12:47:28.068Z,11.50
2019-05-21T12:49:57.998Z,11.50
2019-05-21T12:52:28.603Z,11.40
2019-05-21T12:54:59.675Z,11.40
2019-05-21T12:57:30.399Z,11.40
2019-05-21T12:59:59.953Z,11.40
2019-05-21T13:02:29.962Z,11.50
2019-05-21T13:05:00.266Z,11.50
2019-05-21T13:07:29.977Z,11.50
2019-05-21T13:10:00.238Z,11.60
2019-05-21T13:12:30.405Z,11.60
2019-05-21T13:15:00.507Z,11.60
2019-05-21T13:17:30.453Z,11.70
2019-05-21T13:20:00.441Z,11.60
2019-05-21T13:22:30.677Z,11.60
2019-05-21T13:25:01.325Z,11.70
2019-05-21T13:27:31.371Z,11.70
2019-05-21T13:30:02.085Z,11.80
2019-05-21T13:32:32.285Z,11.70
2019-05-21T13:35:03.145Z,11.70
2019-05-21T13:37:33.368Z,11.70
2019-05-21T13:40:03.979Z,11.70
2019-05-21T13:42:34.239Z,11.70
2019-05-21T13:45:04.331Z,11.70
2019-05-21T13:47:34.319Z,11.70
2019-05-21T13:50:04.940Z,11.70
2019-05-21T13:52:35.021Z,11.70
2019-05-21T13:55:05.449Z,11.70
2019-05-21T13:57:35.827Z,11.70
2019-05-21T14:00:08.142Z,11.70
2019-05-21T14:02:38.145Z,11.70
2019-05-21T14:05:08.221Z,11.70
2019-05-21T14:07:38.475Z,11.60
2019-05-21T14:10:15.181Z,11.60
2019-05-21T14:12:41.012Z,11.60
2019-05-21T14:15:11.823Z,11.60
2019-05-21T14:17:42.104Z,11.60
2019-05-21T14:20:12.935Z,11.60
2019-05-21T14:22:42.859Z,11.60
2019-05-21T14:25:12.687Z,11.60
2019-05-21T14:27:45.087Z,11.70
2019-05-21T14:30:15.312Z,11.70
2019-05-21T14:32:45.614Z,11.70
2019-05-21T14:35:15.146Z,11.70
2019-05-21T14:37:45.716Z,11.60
2019-05-21T14:40:31.284Z,11.60
2019-05-21T14:42:59.475Z,11.70
2019-05-21T14:45:21.106Z,11.60
2019-05-21T14:47:51.399Z,11.60
2019-05-21T14:50:21.744Z,11.60
2019-05-21T14:52:52.487Z,11.60
2019-05-21T14:55:23.115Z,11.50
2019-05-21T14:57:53.085Z,11.50
2019-05-21T15:00:46.821Z,11.50
2019-05-21T15:03:24.744Z,11.50
2019-05-21T15:05:47.743Z,11.50
2019-05-21T15:08:18.276Z,11.50
2019-05-21T15:10:49.614Z,11.50
2019-05-21T15:13:20.126Z,11.50
2019-05-21T15:15:50.067Z,11.50
2019-05-21T15:18:22.240Z,11.50
2019-05-21T15:21:13.836Z,11.50
2019-05-21T15:23:44.279Z,11.60
2019-05-21T15:26:14.445Z,11.60
2019-05-21T15:28:44.879Z,11.60
2019-05-21T15:31:15.187Z,11.60
2019-05-21T15:33:45.167Z,11.50
2019-05-21T15:36:14.835Z,11.50
2019-05-21T15:38:50.723Z,11.50
2019-05-21T15:41:16.458Z,11.50
2019-05-21T15:43:46.582Z,11.50
2019-05-21T15:46:16.624Z,11.50
2019-05-21T15:48:47.360Z,11.50
2019-05-21T15:51:17.325Z,11.50
2019-05-21T15:53:47.906Z,11.50
2019-05-21T15:56:18.536Z,11.50
2019-05-21T15:58:48.802Z,11.50
2019-05-21T16:01:18.700Z,11.50
2019-05-21T16:03:48.709Z,11.60
2019-05-21T16:06:19.383Z,11.50
2019-05-21T16:08:49.139Z,11.60
2019-05-21T16:11:27.963Z,11.50
2019-05-21T16:13:51.388Z,11.40
2019-05-21T16:16:21.631Z,11.40
2019-05-21T16:18:51.698Z,11.40
2019-05-21T16:21:21.371Z,11.40
2019-05-21T16:23:51.056Z,11.40
2019-05-21T16:26:23.309Z,11.30
2019-05-21T16:28:52.693Z,11.30
2019-05-21T16:31:22.956Z,11.30
2019-05-21T16:33:53.146Z,11.30
2019-05-21T16:36:23.401Z,11.30
2019-05-21T16:38:53.099Z,11.30
2019-05-21T16:41:24.785Z,11.30
2019-05-21T16:43:55.434Z,11.30
2019-05-21T16:46:25.769Z,11.30
2019-05-21T16:48:55.747Z,11.20
2019-05-21T16:51:26.012Z,11.30
2019-05-21T16:53:56.248Z,11.30
2019-05-21T16:56:26.303Z,11.20
2019-05-21T16:58:56.717Z,11.20
2019-05-21T17:01:26.726Z,11.20
2019-05-21T17:03:59.814Z,11.20
2019-05-21T17:06:28.389Z,11.20
2019-05-21T17:08:58.399Z,11.10
2019-05-21T17:11:28.736Z,11.10
2019-05-21T17:13:58.462Z,11.10
2019-05-21T17:16:28.868Z,11.10
2019-05-21T17:18:58.170Z,11.10
2019-05-21T17:21:28.487Z,11.10
2019-05-21T17:23:58.537Z,11.10
2019-05-21T17:26:28.518Z,11.10
2019-05-21T17:28:58.624Z,11.10
2019-05-21T17:31:28.939Z,11.10
2019-05-21T17:33:59.006Z,11.00
2019-05-21T17:36:29.000Z,11.00
2019-05-21T17:38:59.236Z,11.00
2019-05-21T17:41:29.224Z,10.90
2019-05-21T17:43:58.927Z,10.90
2019-05-21T17:46:29.503Z,10.90
2019-05-21T17:48:59.824Z,10.90
2019-05-21T17:51:30.132Z,10.90
2019-05-21T17:54:00.494Z,10.90
2019-05-21T17:56:30.389Z,10.90
2019-05-21T17:59:00.398Z,10.90
2019-05-21T18:01:29.667Z,10.90
2019-05-21T18:04:00.374Z,10.90
2019-05-21T18:06:30.419Z,10.90
2019-05-21T18:09:00.766Z,10.90
2019-05-21T18:11:31.074Z,10.90
2019-05-21T18:14:01.050Z,10.90
2019-05-21T18:16:31.429Z,10.90
2019-05-21T18:19:01.149Z,10.90
2019-05-21T18:21:31.554Z,10.90
2019-05-21T18:24:01.277Z,10.90
2019-05-21T18:26:31.246Z,10.90
2019-05-21T18:29:01.296Z,10.90
2019-05-21T18:31:31.614Z,10.90
2019-05-21T18:34:01.906Z,10.90
2019-05-21T18:36:32.249Z,10.90
2019-05-21T18:39:01.880Z,10.90
2019-05-21T18:41:31.858Z,10.90
2019-05-21T18:44:01.585Z,10.90
2019-05-21T18:46:31.373Z,10.90
2019-05-21T18:49:01.766Z,10.80
2019-05-21T18:51:31.782Z,10.80
2019-05-21T18:54:02.077Z,10.80
2019-05-21T18:56:32.417Z,10.80
2019-05-21T18:59:02.469Z,10.80
2019-05-21T19:01:32.532Z,10.80
2019-05-21T19:04:02.860Z,10.80
2019-05-21T19:06:32.788Z,10.80
2019-05-21T19:09:02.963Z,10.80
2019-05-21T19:11:33.032Z,10.80
2019-05-21T19:14:03.155Z,10.80
2019-05-21T19:16:33.150Z,10.80
2019-05-21T19:19:03.208Z,10.70
2019-05-21T19:21:32.972Z,10.70
2019-05-21T19:24:03.428Z,10.70
2019-05-21T19:26:33.578Z,10.70
2019-05-21T19:29:03.564Z,10.70
2019-05-21T19:31:34.325Z,10.70
2019-05-21T19:34:04.729Z,10.70
2019-05-21T19:36:34.731Z,10.70
2019-05-21T19:39:05.897Z,10.70
2019-05-21T19:41:36.295Z,10.70
2019-05-21T19:44:06.772Z,10.70
2019-05-21T19:46:37.459Z,10.70
2019-05-21T19:49:08.141Z,10.70
2019-05-21T19:51:38.489Z,10.70
2019-05-21T19:54:08.727Z,10.70
2019-05-21T19:56:39.130Z,10.70
2019-05-21T19:59:09.824Z,10.70
2019-05-21T20:01:39.719Z,10.70
2019-05-21T20:04:11.265Z,10.70
2019-05-21T20:06:41.351Z,10.70
2019-05-21T20:09:15.810Z,10.70
2019-05-21T20:11:46.143Z,10.70
2019-05-21T20:14:16.244Z,10.70
2019-05-21T20:16:47.284Z,10.70
2019-05-21T20:19:19.672Z,10.70
2019-05-21T20:21:49.928Z,10.60
2019-05-21T20:24:20.694Z,10.60
2019-05-21T20:26:50.861Z,10.60
2019-05-21T20:29:22.288Z,10.60
2019-05-21T20:31:52.581Z,10.60
2019-05-21T20:34:22.322Z,10.50
2019-05-21T20:36:53.186Z,10.50
2019-05-21T20:39:24.627Z,10.50
2019-05-21T20:41:55.135Z,10.50
2019-05-21T20:44:25.847Z,10.50
2019-05-21T20:46:57.017Z,10.50
2019-05-21T20:49:27.774Z,10.50
2019-05-21T20:52:15.853Z,10.50
2019-05-21T20:54:31.773Z,10.50
2019-05-21T20:57:01.809Z,10.50
2019-05-21T20:59:32.123Z,10.50
2019-05-21T21:02:05.046Z,10.50
2019-05-21T21:04:34.168Z,10.50
2019-05-21T21:07:05.411Z,10.50
2019-05-21T21:09:35.652Z,10.50
2019-05-21T21:12:06.505Z,10.50
2019-05-21T21:14:36.584Z,10.40
2019-05-21T21:17:06.812Z,10.50
2019-05-21T21:19:36.790Z,10.50
2019-05-21T21:22:06.919Z,10.40
2019-05-21T21:24:38.406Z,10.40
2019-05-21T21:27:08.413Z,10.40
2019-05-21T21:29:38.178Z,10.40
2019-05-21T21:32:08.441Z,10.40
2019-05-21T21:34:38.742Z,10.40
2019-05-21T21:37:09.294Z,10.40
2019-05-21T21:39:40.296Z,10.50
2019-05-21T21:42:11.351Z,10.40
2019-05-21T21:44:41.864Z,10.50
2019-05-21T21:47:11.996Z,10.50
2019-05-21T21:49:42.603Z,10.40
2019-05-21T21:52:15.263Z,10.50
2019-05-21T21:54:45.341Z,10.40
2019-05-21T21:57:15.780Z,10.50
2019-05-21T21:59:47.690Z,10.50
2019-05-21T22:02:26.950Z,10.50
2019-05-21T22:04:58.905Z,10.50
2019-05-21T22:07:29.204Z,10.50
2019-05-21T22:09:59.153Z,10.50
2019-05-21T22:12:29.697Z,10.50
2019-05-21T22:15:04.013Z,10.50
2019-05-21T22:17:34.682Z,10.50
2019-05-21T22:20:06.328Z,10.50
2019-05-21T22:22:37.124Z,10.50
2019-05-21T22:25:08.924Z,10.50
2019-05-21T22:27:38.829Z,10.50
2019-05-21T22:30:09.308Z,10.50
2019-05-21T22:32:39.372Z,10.40
2019-05-21T22:35:09.492Z,10.50
2019-05-21T22:37:39.659Z,10.50
2019-05-21T22:40:09.753Z,10.50
2019-05-21T22:42:40.589Z,10.40
2019-05-21T22:45:11.576Z,10.40
2019-05-21T22:47:41.873Z,10.40
2019-05-21T22:50:12.464Z,10.40
2019-05-21T22:52:43.941Z,10.40
2019-05-21T22:55:13.663Z,10.50
2019-05-21T22:57:44.820Z,10.50
2019-05-21T23:00:15.352Z,10.50
2019-05-21T23:02:46.118Z,10.40
2019-05-21T23:05:17.651Z,10.40
2019-05-21T23:07:48.235Z,10.40
2019-05-21T23:10:19.016Z,10.40
2019-05-21T23:12:51.593Z,10.40
2019-05-21T23:15:25.254Z,10.50
2019-05-21T23:17:53.080Z,10.50
2019-05-21T23:20:25.444Z,10.50
2019-05-21T23:22:57.724Z,10.50
2019-05-21T23:25:27.757Z,10.50
2019-05-21T23:27:57.678Z,10.50
2019-05-21T23:30:28.191Z,10.50
2019-05-21T23:32:58.634Z,10.50
2019-05-21T23:35:28.787Z,10.50
2019-05-21T23:37:58.580Z,10.40
2019-05-21T23:40:29.970Z,10.50
2019-05-21T23:43:00.764Z,10.50
2019-05-21T23:45:31.154Z,10.50
2019-05-21T23:48:01.870Z,10.50
2019-05-21T23:50:31.577Z,10.40
2019-05-21T23:53:03.303Z,10.50
2019-05-21T23:55:33.233Z,10.50
2019-05-21T23:58:04.004Z,10.50
